sensor_id;sensor_type;location;lat;lon;timestamp;pressure;altitude;pressure_sealevel;temperature;humidity
55685;BME280;41883;49.544;8.646;2023-03-15T00:01:24;100231.56;;;2.08;nan
55685;BME280;41883;49.544;8.646;2023-03-15T00:03:51;100236.38;;;2.02;nan
55685;BME280;41883;49.544;8.646;2023-03-15T00:06:19;100246.19;;;1.98;nan
55685;BME280;41883;49.544;8.646;2023-03-15T00:08:44;100249.09;;;1.94;nan
55685;BME280;41883;49.544;8.646;2023-03-15T00:11:11;100256.50;;;1.87;nan
55685;BME280;41883;49.544;8.646;2023-03-15T00:13:36;100251.59;;;1.82;nan
55685;BME280;41883;49.544;8.646;2023-03-15T00:16:02;100258.75;;;1.79;nan
55685;BME280;41883;49.544;8.646;2023-03-15T00:18:27;100256.56;;;1.73;nan
55685;BME280;41883;49.544;8.646;2023-03-15T00:20:53;100263.03;;;1.67;nan
55685;BME280;41883;49.544;8.646;2023-03-15T00:23:18;100265.94;;;1.62;nan
55685;BME280;41883;49.544;8.646;2023-03-15T00:25:44;100270.59;;;1.57;nan
55685;BME280;41883;49.544;8.646;2023-03-15T00:28:09;100270.94;;;1.53;nan
55685;BME280;41883;49.544;8.646;2023-03-15T00:30:34;100277.28;;;1.48;nan
55685;BME280;41883;49.544;8.646;2023-03-15T00:32:59;100284.56;;;1.43;nan
55685;BME280;41883;49.544;8.646;2023-03-15T00:35:25;100290.16;;;1.37;nan
55685;BME280;41883;49.544;8.646;2023-03-15T00:37:54;100286.91;;;1.34;nan
55685;BME280;41883;49.544;8.646;2023-03-15T00:40:19;100286.28;;;1.30;nan
55685;BME280;41883;49.544;8.646;2023-03-15T00:42:45;100296.06;;;1.26;nan
55685;BME280;41883;49.544;8.646;2023-03-15T00:45:14;100298.97;;;1.22;nan
55685;BME280;41883;49.544;8.646;2023-03-15T00:47:39;100293.91;;;1.19;nan
55685;BME280;41883;49.544;8.646;2023-03-15T00:50:04;100303.59;;;1.17;nan
55685;BME280;41883;49.544;8.646;2023-03-15T00:52:33;100301.00;;;1.17;nan
55685;BME280;41883;49.544;8.646;2023-03-15T00:54:59;100312.44;;;1.14;nan
55685;BME280;41883;49.544;8.646;2023-03-15T00:57:25;100311.16;;;1.07;nan
55685;BME280;41883;49.544;8.646;2023-03-15T00:59:50;100327.06;;;1.02;nan
55685;BME280;41883;49.544;8.646;2023-03-15T01:02:17;100330.91;;;0.97;nan
55685;BME280;41883;49.544;8.646;2023-03-15T01:04:45;100331.28;;;0.91;nan
55685;BME280;41883;49.544;8.646;2023-03-15T01:07:11;100328.84;;;0.88;nan
55685;BME280;41883;49.544;8.646;2023-03-15T01:09:36;100325.34;;;0.89;nan
55685;BME280;41883;49.544;8.646;2023-03-15T01:12:01;100328.69;;;0.91;nan
55685;BME280;41883;49.544;8.646;2023-03-15T01:14:26;100334.88;;;0.88;nan
55685;BME280;41883;49.544;8.646;2023-03-15T01:16:51;100338.81;;;0.81;nan
55685;BME280;41883;49.544;8.646;2023-03-15T01:19:16;100335.56;;;0.77;nan
55685;BME280;41883;49.544;8.646;2023-03-15T01:21:42;100335.66;;;0.76;nan
55685;BME280;41883;49.544;8.646;2023-03-15T01:24:10;100337.22;;;0.78;nan
55685;BME280;41883;49.544;8.646;2023-03-15T01:26:36;100342.63;;;0.75;nan
55685;BME280;41883;49.544;8.646;2023-03-15T01:29:01;100342.72;;;0.74;nan
55685;BME280;41883;49.544;8.646;2023-03-15T01:31:27;100340.09;;;0.74;nan
55685;BME280;41883;49.544;8.646;2023-03-15T01:33:53;100332.69;;;0.68;nan
55685;BME280;41883;49.544;8.646;2023-03-15T01:36:18;100336.31;;;0.65;nan
55685;BME280;41883;49.544;8.646;2023-03-15T01:38:43;100335.56;;;0.63;nan
55685;BME280;41883;49.544;8.646;2023-03-15T01:41:12;100343.56;;;0.60;nan
55685;BME280;41883;49.544;8.646;2023-03-15T01:43:38;100350.91;;;0.53;nan
55685;BME280;41883;49.544;8.646;2023-03-15T01:46:14;100356.47;;;0.47;nan
55685;BME280;41883;49.544;8.646;2023-03-15T01:48:42;100359.81;;;0.49;nan
55685;BME280;41883;49.544;8.646;2023-03-15T01:51:13;100370.28;;;0.48;nan
55685;BME280;41883;49.544;8.646;2023-03-15T01:53:41;100369.56;;;0.46;nan
55685;BME280;41883;49.544;8.646;2023-03-15T01:56:07;100368.00;;;0.43;nan
55685;BME280;41883;49.544;8.646;2023-03-15T01:58:33;100371.69;;;0.39;nan
55685;BME280;41883;49.544;8.646;2023-03-15T02:00:59;100363.34;;;0.34;nan
55685;BME280;41883;49.544;8.646;2023-03-15T02:03:36;100368.69;;;0.31;nan
55685;BME280;41883;49.544;8.646;2023-03-15T02:06:04;100375.78;;;0.29;nan
55685;BME280;41883;49.544;8.646;2023-03-15T02:08:31;100375.03;;;0.27;nan
55685;BME280;41883;49.544;8.646;2023-03-15T02:10:57;100378.91;;;0.19;nan
55685;BME280;41883;49.544;8.646;2023-03-15T02:13:24;100374.47;;;0.22;nan
55685;BME280;41883;49.544;8.646;2023-03-15T02:15:50;100377.97;;;0.20;nan
55685;BME280;41883;49.544;8.646;2023-03-15T02:18:17;100378.53;;;0.26;nan
55685;BME280;41883;49.544;8.646;2023-03-15T02:23:17;100373.81;;;0.32;nan
55685;BME280;41883;49.544;8.646;2023-03-15T02:28:28;100370.56;;;0.29;nan
55685;BME280;41883;49.544;8.646;2023-03-15T02:30:54;100375.09;;;0.25;nan
55685;BME280;41883;49.544;8.646;2023-03-15T02:35:50;100387.03;;;0.13;nan
55685;BME280;41883;49.544;8.646;2023-03-15T02:38:16;100388.41;;;0.05;nan
55685;BME280;41883;49.544;8.646;2023-03-15T02:40:41;100386.34;;;-0.05;nan
55685;BME280;41883;49.544;8.646;2023-03-15T02:43:10;100388.34;;;-0.10;nan
55685;BME280;41883;49.544;8.646;2023-03-15T02:45:37;100393.53;;;-0.10;nan
55685;BME280;41883;49.544;8.646;2023-03-15T02:48:03;100400.50;;;-0.10;nan
55685;BME280;41883;49.544;8.646;2023-03-15T02:50:29;100408.75;;;-0.18;nan
55685;BME280;41883;49.544;8.646;2023-03-15T02:52:54;100409.09;;;-0.24;nan
55685;BME280;41883;49.544;8.646;2023-03-15T02:55:19;100411.69;;;-0.24;nan
55685;BME280;41883;49.544;8.646;2023-03-15T02:57:45;100405.31;;;-0.18;nan
55685;BME280;41883;49.544;8.646;2023-03-15T03:00:11;100407.75;;;-0.15;nan
55685;BME280;41883;49.544;8.646;2023-03-15T03:02:38;100418.06;;;-0.14;nan
55685;BME280;41883;49.544;8.646;2023-03-15T03:05:03;100426.69;;;-0.13;nan
55685;BME280;41883;49.544;8.646;2023-03-15T03:07:29;100431.19;;;-0.17;nan
55685;BME280;41883;49.544;8.646;2023-03-15T03:09:54;100431.38;;;-0.20;nan
55685;BME280;41883;49.544;8.646;2023-03-15T03:12:20;100441.19;;;-0.25;nan
55685;BME280;41883;49.544;8.646;2023-03-15T03:14:46;100437.09;;;-0.29;nan
55685;BME280;41883;49.544;8.646;2023-03-15T03:17:11;100442.38;;;-0.31;nan
55685;BME280;41883;49.544;8.646;2023-03-15T03:19:36;100449.94;;;-0.26;nan
55685;BME280;41883;49.544;8.646;2023-03-15T03:22:02;100452.25;;;-0.22;nan
55685;BME280;41883;49.544;8.646;2023-03-15T03:24:28;100450.31;;;-0.18;nan
55685;BME280;41883;49.544;8.646;2023-03-15T03:26:53;100454.50;;;-0.15;nan
55685;BME280;41883;49.544;8.646;2023-03-15T03:29:21;100462.88;;;-0.10;nan
55685;BME280;41883;49.544;8.646;2023-03-15T03:31:46;100466.25;;;-0.08;nan
55685;BME280;41883;49.544;8.646;2023-03-15T03:34:12;100466.31;;;-0.10;nan
55685;BME280;41883;49.544;8.646;2023-03-15T03:36:39;100468.09;;;-0.10;nan
55685;BME280;41883;49.544;8.646;2023-03-15T03:39:04;100470.69;;;-0.10;nan
55685;BME280;41883;49.544;8.646;2023-03-15T03:41:29;100472.28;;;-0.08;nan
55685;BME280;41883;49.544;8.646;2023-03-15T03:43:55;100473.09;;;-0.07;nan
55685;BME280;41883;49.544;8.646;2023-03-15T03:46:20;100476.47;;;-0.05;nan
55685;BME280;41883;49.544;8.646;2023-03-15T03:48:45;100480.00;;;-0.06;nan
55685;BME280;41883;49.544;8.646;2023-03-15T03:51:10;100483.44;;;-0.06;nan
55685;BME280;41883;49.544;8.646;2023-03-15T03:53:36;100485.03;;;-0.03;nan
55685;BME280;41883;49.544;8.646;2023-03-15T03:56:03;100483.34;;;-0.04;nan
55685;BME280;41883;49.544;8.646;2023-03-15T03:58:28;100486.72;;;-0.02;nan
55685;BME280;41883;49.544;8.646;2023-03-15T04:00:54;100490.22;;;-0.03;nan
55685;BME280;41883;49.544;8.646;2023-03-15T04:03:19;100492.81;;;-0.03;nan
55685;BME280;41883;49.544;8.646;2023-03-15T04:05:50;100493.75;;;-0.04;nan
55685;BME280;41883;49.544;8.646;2023-03-15T04:08:16;100491.16;;;-0.04;nan
55685;BME280;41883;49.544;8.646;2023-03-15T04:10:42;100494.66;;;-0.05;nan
55685;BME280;41883;49.544;8.646;2023-03-15T04:13:07;100499.97;;;-0.07;nan
55685;BME280;41883;49.544;8.646;2023-03-15T04:15:32;100496.59;;;-0.09;nan
55685;BME280;41883;49.544;8.646;2023-03-15T04:17:57;100503.66;;;-0.11;nan
55685;BME280;41883;49.544;8.646;2023-03-15T04:20:24;100494.91;;;-0.10;nan
55685;BME280;41883;49.544;8.646;2023-03-15T04:22:49;100491.59;;;-0.12;nan
55685;BME280;41883;49.544;8.646;2023-03-15T04:25:16;100502.97;;;-0.14;nan
55685;BME280;41883;49.544;8.646;2023-03-15T04:27:41;100500.63;;;-0.19;nan
55685;BME280;41883;49.544;8.646;2023-03-15T04:30:06;100493.94;;;-0.23;nan
55685;BME280;41883;49.544;8.646;2023-03-15T04:32:32;100495.59;;;-0.22;nan
55685;BME280;41883;49.544;8.646;2023-03-15T04:34:57;100490.97;;;-0.17;nan
55685;BME280;41883;49.544;8.646;2023-03-15T04:37:22;100502.38;;;-0.19;nan
55685;BME280;41883;49.544;8.646;2023-03-15T04:39:47;100501.47;;;-0.18;nan
55685;BME280;41883;49.544;8.646;2023-03-15T04:42:12;100501.38;;;-0.17;nan
55685;BME280;41883;49.544;8.646;2023-03-15T04:44:38;100510.03;;;-0.16;nan
55685;BME280;41883;49.544;8.646;2023-03-15T04:47:03;100515.88;;;-0.13;nan
55685;BME280;41883;49.544;8.646;2023-03-15T04:49:28;100520.25;;;-0.13;nan
55685;BME280;41883;49.544;8.646;2023-03-15T04:51:53;100517.72;;;-0.15;nan
55685;BME280;41883;49.544;8.646;2023-03-15T04:54:18;100526.19;;;-0.11;nan
55685;BME280;41883;49.544;8.646;2023-03-15T04:56:44;100522.59;;;-0.09;nan
55685;BME280;41883;49.544;8.646;2023-03-15T04:59:09;100516.38;;;-0.06;nan
55685;BME280;41883;49.544;8.646;2023-03-15T05:01:35;100512.84;;;-0.05;nan
55685;BME280;41883;49.544;8.646;2023-03-15T05:04:01;100515.19;;;-0.01;nan
55685;BME280;41883;49.544;8.646;2023-03-15T05:06:26;100511.53;;;0.04;nan
55685;BME280;41883;49.544;8.646;2023-03-15T05:08:52;100521.41;;;0.13;nan
55685;BME280;41883;49.544;8.646;2023-03-15T05:11:17;100516.72;;;0.19;nan
55685;BME280;41883;49.544;8.646;2023-03-15T05:13:42;100523.31;;;0.25;nan
55685;BME280;41883;49.544;8.646;2023-03-15T05:16:07;100522.88;;;0.33;nan
55685;BME280;41883;49.544;8.646;2023-03-15T05:18:33;100515.59;;;0.39;nan
55685;BME280;41883;49.544;8.646;2023-03-15T05:20:58;100522.19;;;0.45;nan
55685;BME280;41883;49.544;8.646;2023-03-15T05:23:23;100525.41;;;0.50;nan
55685;BME280;41883;49.544;8.646;2023-03-15T05:25:52;100525.84;;;0.57;nan
55685;BME280;41883;49.544;8.646;2023-03-15T05:28:18;100529.97;;;0.61;nan
55685;BME280;41883;49.544;8.646;2023-03-15T05:30:43;100522.84;;;0.65;nan
55685;BME280;41883;49.544;8.646;2023-03-15T05:33:09;100525.25;;;0.68;nan
55685;BME280;41883;49.544;8.646;2023-03-15T05:35:35;100535.28;;;0.74;nan
55685;BME280;41883;49.544;8.646;2023-03-15T05:38:00;100543.78;;;0.77;nan
55685;BME280;41883;49.544;8.646;2023-03-15T05:40:25;100547.13;;;0.79;nan
55685;BME280;41883;49.544;8.646;2023-03-15T05:42:53;100540.91;;;0.82;nan
55685;BME280;41883;49.544;8.646;2023-03-15T05:45:18;100554.69;;;0.84;nan
55685;BME280;41883;49.544;8.646;2023-03-15T05:47:44;100557.03;;;0.89;nan
55685;BME280;41883;49.544;8.646;2023-03-15T05:50:09;100560.28;;;0.92;nan
55685;BME280;41883;49.544;8.646;2023-03-15T05:52:34;100557.97;;;1.02;nan
55685;BME280;41883;49.544;8.646;2023-03-15T05:54:59;100548.31;;;1.04;nan
55685;BME280;41883;49.544;8.646;2023-03-15T05:57:25;100554.19;;;1.08;nan
55685;BME280;41883;49.544;8.646;2023-03-15T05:59:50;100554.00;;;1.11;nan
55685;BME280;41883;49.544;8.646;2023-03-15T06:02:15;100565.16;;;1.13;nan
55685;BME280;41883;49.544;8.646;2023-03-15T06:04:40;100559.69;;;1.17;nan
55685;BME280;41883;49.544;8.646;2023-03-15T06:07:05;100549.25;;;1.17;nan
55685;BME280;41883;49.544;8.646;2023-03-15T06:09:31;100548.25;;;1.20;nan
55685;BME280;41883;49.544;8.646;2023-03-15T06:11:56;100557.06;;;1.17;nan
55685;BME280;41883;49.544;8.646;2023-03-15T06:14:23;100565.53;;;1.21;nan
55685;BME280;41883;49.544;8.646;2023-03-15T06:16:48;100576.69;;;1.23;nan
55685;BME280;41883;49.544;8.646;2023-03-15T06:19:13;100568.88;;;1.23;nan
55685;BME280;41883;49.544;8.646;2023-03-15T06:21:38;100577.53;;;1.23;nan
55685;BME280;41883;49.544;8.646;2023-03-15T06:24:03;100576.44;;;1.27;nan
55685;BME280;41883;49.544;8.646;2023-03-15T06:26:30;100589.38;;;1.29;nan
55685;BME280;41883;49.544;8.646;2023-03-15T06:28:55;100578.78;;;1.32;nan
55685;BME280;41883;49.544;8.646;2023-03-15T06:31:20;100583.91;;;1.34;nan
55685;BME280;41883;49.544;8.646;2023-03-15T06:33:45;100592.44;;;1.36;nan
55685;BME280;41883;49.544;8.646;2023-03-15T06:36:11;100585.28;;;1.39;nan
55685;BME280;41883;49.544;8.646;2023-03-15T06:38:36;100583.72;;;1.37;nan
55685;BME280;41883;49.544;8.646;2023-03-15T06:41:02;100586.22;;;1.38;nan
55685;BME280;41883;49.544;8.646;2023-03-15T06:43:29;100599.25;;;1.38;nan
55685;BME280;41883;49.544;8.646;2023-03-15T06:45:54;100599.97;;;1.40;nan
55685;BME280;41883;49.544;8.646;2023-03-15T06:48:20;100596.53;;;1.40;nan
55685;BME280;41883;49.544;8.646;2023-03-15T06:50:46;100608.53;;;1.42;nan
55685;BME280;41883;49.544;8.646;2023-03-15T06:53:11;100613.69;;;1.44;nan
55685;BME280;41883;49.544;8.646;2023-03-15T06:55:37;100611.63;;;1.49;nan
55685;BME280;41883;49.544;8.646;2023-03-15T06:58:02;100608.09;;;1.50;nan
55685;BME280;41883;49.544;8.646;2023-03-15T07:00:27;100612.47;;;1.49;nan
55685;BME280;41883;49.544;8.646;2023-03-15T07:02:52;100613.22;;;1.52;nan
55685;BME280;41883;49.544;8.646;2023-03-15T07:05:17;100613.03;;;1.55;nan
55685;BME280;41883;49.544;8.646;2023-03-15T07:07:43;100610.13;;;1.59;nan
55685;BME280;41883;49.544;8.646;2023-03-15T07:10:08;100605.88;;;1.58;nan
55685;BME280;41883;49.544;8.646;2023-03-15T07:12:34;100604.00;;;1.60;nan
55685;BME280;41883;49.544;8.646;2023-03-15T07:14:59;100618.81;;;1.60;nan
55685;BME280;41883;49.544;8.646;2023-03-15T07:17:24;100633.31;;;1.64;nan
55685;BME280;41883;49.544;8.646;2023-03-15T07:19:50;100645.06;;;1.71;nan
55685;BME280;41883;49.544;8.646;2023-03-15T07:22:16;100651.78;;;1.75;nan
55685;BME280;41883;49.544;8.646;2023-03-15T07:24:41;100655.59;;;1.84;nan
55685;BME280;41883;49.544;8.646;2023-03-15T07:27:06;100655.50;;;1.85;nan
55685;BME280;41883;49.544;8.646;2023-03-15T07:29:31;100659.69;;;1.88;nan
55685;BME280;41883;49.544;8.646;2023-03-15T07:31:56;100666.59;;;1.89;nan
55685;BME280;41883;49.544;8.646;2023-03-15T07:34:22;100674.22;;;1.92;nan
55685;BME280;41883;49.544;8.646;2023-03-15T07:36:47;100670.66;;;1.93;nan
55685;BME280;41883;49.544;8.646;2023-03-15T07:39:12;100665.47;;;1.93;nan
55685;BME280;41883;49.544;8.646;2023-03-15T07:41:37;100678.41;;;1.95;nan
55685;BME280;41883;49.544;8.646;2023-03-15T07:44:03;100683.53;;;1.96;nan
55685;BME280;41883;49.544;8.646;2023-03-15T07:46:28;100682.59;;;1.97;nan
55685;BME280;41883;49.544;8.646;2023-03-15T07:48:53;100667.06;;;1.96;nan
55685;BME280;41883;49.544;8.646;2023-03-15T07:51:18;100670.31;;;1.99;nan
55685;BME280;41883;49.544;8.646;2023-03-15T07:53:44;100666.78;;;2.00;nan
55685;BME280;41883;49.544;8.646;2023-03-15T07:56:09;100661.25;;;2.05;nan
55685;BME280;41883;49.544;8.646;2023-03-15T07:58:34;100666.31;;;2.08;nan
55685;BME280;41883;49.544;8.646;2023-03-15T08:01:00;100666.31;;;2.08;nan
55685;BME280;41883;49.544;8.646;2023-03-15T08:03:25;100666.03;;;2.12;nan
55685;BME280;41883;49.544;8.646;2023-03-15T08:05:51;100674.03;;;2.09;nan
55685;BME280;41883;49.544;8.646;2023-03-15T08:08:16;100669.56;;;2.11;nan
55685;BME280;41883;49.544;8.646;2023-03-15T08:10:42;100676.19;;;2.17;nan
55685;BME280;41883;49.544;8.646;2023-03-15T08:13:07;100667.22;;;2.21;nan
55685;BME280;41883;49.544;8.646;2023-03-15T08:15:33;100663.50;;;2.25;nan
55685;BME280;41883;49.544;8.646;2023-03-15T08:17:58;100672.81;;;2.29;nan
55685;BME280;41883;49.544;8.646;2023-03-15T08:20:23;100667.59;;;2.29;nan
55685;BME280;41883;49.544;8.646;2023-03-15T08:22:49;100672.91;;;2.28;nan
55685;BME280;41883;49.544;8.646;2023-03-15T08:25:16;100688.09;;;2.36;nan
55685;BME280;41883;49.544;8.646;2023-03-15T08:27:42;100702.06;;;2.34;nan
55685;BME280;41883;49.544;8.646;2023-03-15T08:30:11;100695.75;;;2.39;nan
55685;BME280;41883;49.544;8.646;2023-03-15T08:32:37;100695.34;;;2.30;nan
55685;BME280;41883;49.544;8.646;2023-03-15T08:35:02;100701.59;;;2.28;nan
55685;BME280;41883;49.544;8.646;2023-03-15T08:37:28;100695.16;;;2.19;nan
55685;BME280;41883;49.544;8.646;2023-03-15T08:39:53;100695.00;;;2.22;nan
55685;BME280;41883;49.544;8.646;2023-03-15T08:42:25;100697.50;;;2.24;nan
55685;BME280;41883;49.544;8.646;2023-03-15T08:44:50;100699.66;;;2.31;nan
55685;BME280;41883;49.544;8.646;2023-03-15T08:47:15;100695.47;;;2.29;nan
55685;BME280;41883;49.544;8.646;2023-03-15T08:49:40;100689.94;;;2.33;nan
55685;BME280;41883;49.544;8.646;2023-03-15T08:52:06;100702.56;;;2.27;nan
55685;BME280;41883;49.544;8.646;2023-03-15T08:54:31;100702.44;;;2.28;nan
55685;BME280;41883;49.544;8.646;2023-03-15T08:56:56;100713.91;;;2.26;nan
55685;BME280;41883;49.544;8.646;2023-03-15T08:59:21;100720.53;;;2.31;nan
55685;BME280;41883;49.544;8.646;2023-03-15T09:01:46;100714.66;;;2.28;nan
55685;BME280;41883;49.544;8.646;2023-03-15T09:04:14;100720.44;;;2.33;nan
55685;BME280;41883;49.544;8.646;2023-03-15T09:06:39;100730.22;;;2.44;nan
55685;BME280;41883;49.544;8.646;2023-03-15T09:09:06;100732.06;;;2.42;nan
55685;BME280;41883;49.544;8.646;2023-03-15T09:11:31;100721.84;;;2.39;nan
55685;BME280;41883;49.544;8.646;2023-03-15T09:13:56;100731.34;;;2.40;nan
55685;BME280;41883;49.544;8.646;2023-03-15T09:16:21;100724.06;;;2.30;nan
55685;BME280;41883;49.544;8.646;2023-03-15T09:18:46;100729.09;;;2.19;nan
55685;BME280;41883;49.544;8.646;2023-03-15T09:21:12;100738.06;;;2.15;nan
55685;BME280;41883;49.544;8.646;2023-03-15T09:23:37;100741.47;;;2.01;nan
55685;BME280;41883;49.544;8.646;2023-03-15T09:26:02;100748.06;;;1.92;nan
55685;BME280;41883;49.544;8.646;2023-03-15T09:28:27;100750.13;;;1.87;nan
55685;BME280;41883;49.544;8.646;2023-03-15T09:30:53;100751.06;;;1.86;nan
55685;BME280;41883;49.544;8.646;2023-03-15T09:33:18;100758.47;;;1.78;nan
55685;BME280;41883;49.544;8.646;2023-03-15T09:35:46;100756.50;;;1.67;nan
55685;BME280;41883;49.544;8.646;2023-03-15T09:38:11;100759.72;;;1.57;nan
55685;BME280;41883;49.544;8.646;2023-03-15T09:40:40;100765.03;;;1.55;nan
55685;BME280;41883;49.544;8.646;2023-03-15T09:45:45;100768.81;;;1.49;nan
55685;BME280;41883;49.544;8.646;2023-03-15T09:48:15;100766.91;;;1.37;nan
55685;BME280;41883;49.544;8.646;2023-03-15T09:50:47;100767.78;;;1.22;nan
55685;BME280;41883;49.544;8.646;2023-03-15T09:53:17;100772.75;;;1.11;nan
55685;BME280;41883;49.544;8.646;2023-03-15T09:55:44;100773.44;;;0.98;nan
55685;BME280;41883;49.544;8.646;2023-03-15T09:58:13;100777.38;;;0.90;nan
55685;BME280;41883;49.544;8.646;2023-03-15T10:00:43;100775.38;;;0.79;nan
55685;BME280;41883;49.544;8.646;2023-03-15T10:03:26;100778.09;;;0.76;nan
55685;BME280;41883;49.544;8.646;2023-03-15T10:05:54;100781.72;;;0.73;nan
55685;BME280;41883;49.544;8.646;2023-03-15T10:08:20;100779.13;;;0.73;nan
55685;BME280;41883;49.544;8.646;2023-03-15T10:10:48;100780.88;;;0.73;nan
55685;BME280;41883;49.544;8.646;2023-03-15T10:13:19;100780.72;;;0.76;nan
55685;BME280;41883;49.544;8.646;2023-03-15T10:18:16;100773.16;;;0.87;nan
55685;BME280;41883;49.544;8.646;2023-03-15T10:20:52;100779.91;;;0.91;nan
55685;BME280;41883;49.544;8.646;2023-03-15T10:23:22;100785.44;;;1.01;nan
55685;BME280;41883;49.544;8.646;2023-03-15T10:25:52;100784.84;;;1.12;nan
55685;BME280;41883;49.544;8.646;2023-03-15T10:28:28;100780.56;;;1.26;nan
55685;BME280;41883;49.544;8.646;2023-03-15T10:30:55;100787.25;;;1.46;nan
55685;BME280;41883;49.544;8.646;2023-03-15T10:33:31;100791.75;;;1.59;nan
55685;BME280;41883;49.544;8.646;2023-03-15T10:35:58;100797.28;;;1.68;nan
55685;BME280;41883;49.544;8.646;2023-03-15T10:38:24;100783.22;;;1.71;nan
55685;BME280;41883;49.544;8.646;2023-03-15T10:40:51;100790.59;;;1.79;nan
55685;BME280;41883;49.544;8.646;2023-03-15T10:45:45;100787.56;;;1.86;nan
55685;BME280;41883;49.544;8.646;2023-03-15T10:48:10;100787.09;;;1.94;nan
55685;BME280;41883;49.544;8.646;2023-03-15T10:50:38;100776.97;;;2.04;nan
55685;BME280;41883;49.544;8.646;2023-03-15T10:53:16;100773.16;;;2.09;nan
55685;BME280;41883;49.544;8.646;2023-03-15T10:55:44;100782.00;;;2.21;nan
55685;BME280;41883;49.544;8.646;2023-03-15T10:58:26;100782.31;;;2.31;nan
55685;BME280;41883;49.544;8.646;2023-03-15T11:00:53;100771.69;;;2.34;nan
55685;BME280;41883;49.544;8.646;2023-03-15T11:03:23;100773.75;;;2.43;nan
55685;BME280;41883;49.544;8.646;2023-03-15T11:05:49;100774.31;;;2.48;nan
55685;BME280;41883;49.544;8.646;2023-03-15T11:08:17;100768.69;;;2.54;nan
55685;BME280;41883;49.544;8.646;2023-03-15T11:10:43;100776.44;;;2.56;nan
55685;BME280;41883;49.544;8.646;2023-03-15T11:13:22;100774.19;;;2.64;nan
55685;BME280;41883;49.544;8.646;2023-03-15T11:16:33;100770.84;;;2.76;nan
55685;BME280;41883;49.544;8.646;2023-03-15T11:21:09;100777.84;;;3.17;nan
55685;BME280;41883;49.544;8.646;2023-03-15T11:23:37;100776.50;;;3.25;nan
55685;BME280;41883;49.544;8.646;2023-03-15T11:26:03;100778.13;;;3.40;nan
55685;BME280;41883;49.544;8.646;2023-03-15T11:28:30;100778.34;;;3.50;nan
55685;BME280;41883;49.544;8.646;2023-03-15T11:30:56;100780.06;;;3.64;nan
55685;BME280;41883;49.544;8.646;2023-03-15T11:36:10;100783.34;;;3.93;nan
55685;BME280;41883;49.544;8.646;2023-03-15T11:38:40;100777.63;;;4.00;nan
55685;BME280;41883;49.544;8.646;2023-03-15T11:44:36;100777.53;;;4.53;nan
55685;BME280;41883;49.544;8.646;2023-03-15T11:46:42;100785.72;;;4.98;nan
55685;BME280;41883;49.544;8.646;2023-03-15T11:51:43;100775.97;;;5.48;nan
55685;BME280;41883;49.544;8.646;2023-03-15T11:54:16;100766.47;;;5.59;nan
55685;BME280;41883;49.544;8.646;2023-03-15T11:59:11;100783.34;;;5.79;nan
55685;BME280;41883;49.544;8.646;2023-03-15T12:01:50;100781.66;;;6.02;nan
55685;BME280;41883;49.544;8.646;2023-03-15T12:06:54;100781.22;;;6.30;nan
55685;BME280;41883;49.544;8.646;2023-03-15T12:14:41;100780.59;;;6.15;nan
55685;BME280;41883;49.544;8.646;2023-03-15T12:19:57;100784.50;;;5.99;nan
55685;BME280;41883;49.544;8.646;2023-03-15T12:22:23;100784.44;;;5.87;nan
55685;BME280;41883;49.544;8.646;2023-03-15T12:24:51;100783.69;;;5.74;nan
55685;BME280;41883;49.544;8.646;2023-03-15T12:27:17;100772.19;;;5.64;nan
55685;BME280;41883;49.544;8.646;2023-03-15T12:29:44;100772.47;;;5.48;nan
55685;BME280;41883;49.544;8.646;2023-03-15T12:32:19;100780.47;;;5.46;nan
55685;BME280;41883;49.544;8.646;2023-03-15T12:37:14;100776.31;;;5.55;nan
55685;BME280;41883;49.544;8.646;2023-03-15T12:39:42;100780.50;;;5.58;nan
55685;BME280;41883;49.544;8.646;2023-03-15T12:42:11;100776.47;;;5.65;nan
55685;BME280;41883;49.544;8.646;2023-03-15T12:44:42;100786.69;;;5.81;nan
55685;BME280;41883;49.544;8.646;2023-03-15T12:47:08;100790.34;;;6.02;nan
55685;BME280;41883;49.544;8.646;2023-03-15T12:57:10;100767.47;;;7.27;nan
55685;BME280;41883;49.544;8.646;2023-03-15T12:59:55;100760.31;;;7.29;nan
55685;BME280;41883;49.544;8.646;2023-03-15T13:03:04;100769.78;;;7.20;nan
55685;BME280;41883;49.544;8.646;2023-03-15T13:05:12;100767.91;;;7.11;nan
55685;BME280;41883;49.544;8.646;2023-03-15T13:10:20;100770.25;;;7.25;nan
55685;BME280;41883;49.544;8.646;2023-03-15T13:15:39;100753.47;;;7.37;nan
55685;BME280;41883;49.544;8.646;2023-03-15T13:18:12;100752.56;;;7.48;nan
55685;BME280;41883;49.544;8.646;2023-03-15T13:20:47;100756.00;;;7.60;nan
55685;BME280;41883;49.544;8.646;2023-03-15T13:28:29;100749.22;;;7.78;nan
55685;BME280;41883;49.544;8.646;2023-03-15T13:31:01;100754.59;;;7.77;nan
55685;BME280;41883;49.544;8.646;2023-03-15T13:33:34;100754.72;;;7.75;nan
55685;BME280;41883;49.544;8.646;2023-03-15T13:36:00;100756.22;;;7.68;nan
55685;BME280;41883;49.544;8.646;2023-03-15T13:40:51;100764.97;;;7.57;nan
55685;BME280;41883;49.544;8.646;2023-03-15T13:43:17;100763.19;;;7.58;nan
55685;BME280;41883;49.544;8.646;2023-03-15T13:45:43;100762.63;;;7.75;nan
55685;BME280;41883;49.544;8.646;2023-03-15T13:48:08;100765.19;;;7.65;nan
55685;BME280;41883;49.544;8.646;2023-03-15T13:50:33;100752.13;;;7.43;nan
55685;BME280;41883;49.544;8.646;2023-03-15T13:52:59;100746.59;;;7.25;nan
55685;BME280;41883;49.544;8.646;2023-03-15T13:55:26;100751.03;;;7.13;nan
55685;BME280;41883;49.544;8.646;2023-03-15T13:57:54;100756.94;;;7.06;nan
55685;BME280;41883;49.544;8.646;2023-03-15T14:00:21;100752.72;;;7.03;nan
55685;BME280;41883;49.544;8.646;2023-03-15T14:02:50;100753.50;;;6.94;nan
55685;BME280;41883;49.544;8.646;2023-03-15T14:05:18;100747.19;;;7.17;nan
55685;BME280;41883;49.544;8.646;2023-03-15T14:07:47;100745.13;;;7.32;nan
55685;BME280;41883;49.544;8.646;2023-03-15T14:12:58;100762.34;;;7.57;nan
55685;BME280;41883;49.544;8.646;2023-03-15T14:15:42;100757.03;;;7.04;nan
55685;BME280;41883;49.544;8.646;2023-03-15T14:20:39;100771.22;;;5.89;nan
55685;BME280;41883;49.544;8.646;2023-03-15T14:23:08;100773.06;;;5.40;nan
55685;BME280;41883;49.544;8.646;2023-03-15T14:25:34;100782.31;;;5.09;nan